Time;durP1;ratioP1;P1;durP2;ratioP2;P2;SDS_P1;SDS_P2;PMS_P1;PMS_P2;Temp;Humidity;BMP_temperature;BMP_pressure;BME280_temperature;BME280_humidity;BME280_pressure;Samples;Min_cycle;Max_cycle;Signal;HPM_P1;HPM_P2
2022/03/14 00:00:27;;;;;;;12.68;9.18;;;;;;;10.47;67.55;101532.56;5033205;28;20025;-51
2022/03/14 00:02:54;;;;;;;13.80;9.70;;;;;;;10.45;66.94;101530.09;5033509;28;20025;-51
2022/03/14 00:05:20;;;;;;;13.93;9.50;;;;;;;10.48;66.77;101539.75;5033751;28;20040;-51
2022/03/14 00:07:46;;;;;;;13.88;9.50;;;;;;;10.39;67.15;101545.06;5033623;28;20386;-51
2022/03/14 00:10:14;;;;;;;13.63;9.27;;;;;;;10.38;66.48;101543.44;5032885;28;20033;-52
2022/03/14 00:12:42;;;;;;;15.23;9.93;;;;;;;10.33;67.31;101550.91;5033574;28;20548;-52
2022/03/14 00:15:11;;;;;;;12.88;9.50;;;;;;;10.32;66.97;101554.78;5033330;28;20025;-51
2022/03/14 00:17:37;;;;;;;14.15;9.70;;;;;;;10.33;66.61;101557.25;5033775;28;20029;-52
2022/03/14 00:20:07;;;;;;;14.75;9.63;;;;;;;10.26;67.28;101565.88;5033815;28;20116;-48
2022/03/14 00:22:32;;;;;;;13.60;9.48;;;;;;;10.25;67.53;101568.94;5033044;28;20469;-52
2022/03/14 00:24:58;;;;;;;14.95;9.93;;;;;;;10.26;67.14;101573.34;5033115;28;20033;-51
2022/03/14 00:27:23;;;;;;;14.50;9.73;;;;;;;10.23;67.46;101569.22;5031729;28;20026;-52
2022/03/14 00:29:48;;;;;;;14.60;10.13;;;;;;;10.22;67.37;101567.56;5032827;28;20037;-53
2022/03/14 00:32:13;;;;;;;14.52;9.70;;;;;;;10.22;67.55;101573.09;5033782;28;20034;-52
2022/03/14 00:34:39;;;;;;;15.68;10.00;;;;;;;10.21;67.75;101582.50;5033524;28;20021;-52
2022/03/14 00:37:04;;;;;;;16.08;10.32;;;;;;;10.20;67.29;101580.03;5032689;28;20457;-51
2022/03/14 00:39:29;;;;;;;12.90;9.43;;;;;;;10.19;67.67;101584.72;5032694;28;20548;-52
2022/03/14 00:41:55;;;;;;;13.85;9.70;;;;;;;10.19;67.35;101594.97;5033200;28;20477;-53
2022/03/14 00:44:20;;;;;;;15.30;9.90;;;;;;;10.17;67.53;101594.44;5032606;28;20039;-52
2022/03/14 00:46:45;;;;;;;14.93;9.80;;;;;;;10.17;67.92;101591.66;5032827;28;20127;-53
2022/03/14 00:49:11;;;;;;;14.60;9.32;;;;;;;10.14;67.86;101599.41;5033353;28;20107;-53
2022/03/14 00:51:37;;;;;;;13.55;9.45;;;;;;;10.14;68.01;101599.41;5032304;28;20033;-54
2022/03/14 00:54:03;;;;;;;14.70;9.77;;;;;;;10.13;68.17;101600.50;5033610;28;20034;-50
2022/03/14 00:56:29;;;;;;;14.93;10.50;;;;;;;10.10;68.11;101601.09;5033600;28;20112;-51
2022/03/14 00:58:55;;;;;;;16.40;9.85;;;;;;;10.12;68.10;101604.38;5032794;28;20572;-52
2022/03/14 01:01:21;;;;;;;15.02;10.23;;;;;;;10.11;68.09;101605.50;5032105;28;20369;-55
2022/03/14 01:03:46;;;;;;;15.07;10.20;;;;;;;10.10;68.34;101614.94;5032888;28;20025;-52
2022/03/14 01:06:12;;;;;;;15.00;10.50;;;;;;;10.10;68.36;101616.84;5032757;28;20381;-50
2022/03/14 01:08:37;;;;;;;14.93;10.05;;;;;;;10.09;68.56;101620.72;5032282;28;20025;-50
2022/03/14 01:11:02;;;;;;;15.95;10.90;;;;;;;10.11;68.19;101619.31;5032535;28;20079;-53
2022/03/14 01:13:28;;;;;;;15.10;10.18;;;;;;;10.08;68.37;101625.44;5032436;28;20022;-52
2022/03/14 01:15:53;;;;;;;15.65;10.52;;;;;;;10.06;68.39;101630.41;5032190;28;20477;-53
2022/03/14 01:18:19;;;;;;;15.02;10.43;;;;;;;10.03;68.64;101627.41;5031989;28;20025;-54
2022/03/14 01:20:44;;;;;;;14.60;10.02;;;;;;;10.05;68.71;101631.53;5032725;28;20029;-53
2022/03/14 01:23:09;;;;;;;17.70;10.48;;;;;;;10.05;68.85;101631.53;5032432;28;20029;-54
2022/03/14 01:25:35;;;;;;;15.85;10.60;;;;;;;10.13;68.48;101633.69;5032854;28;20440;-52
2022/03/14 01:28:02;;;;;;;14.63;9.85;;;;;;;10.11;68.69;101633.16;5032822;28;20033;-53
2022/03/14 01:30:28;;;;;;;15.57;9.80;;;;;;;10.05;69.16;101631.53;5032225;28;20253;-51
2022/03/14 01:32:53;;;;;;;16.27;10.18;;;;;;;10.03;69.29;101641.22;5032054;28;20124;-49
2022/03/14 01:35:19;;;;;;;14.93;10.50;;;;;;;10.01;69.54;101647.03;5032168;28;20032;-51
2022/03/14 01:37:49;;;;;;;16.13;10.20;;;;;;;9.96;69.36;101652.56;5032529;28;20033;-53
2022/03/14 01:40:14;;;;;;;16.42;10.57;;;;;;;9.94;69.76;101652.84;5033344;28;20021;-53
2022/03/14 01:42:40;;;;;;;15.15;10.27;;;;;;;9.93;69.94;101648.44;5033091;28;20022;-53
2022/03/14 01:45:05;;;;;;;15.35;10.43;;;;;;;9.91;70.01;101647.06;5030871;28;20057;-51
2022/03/14 01:47:32;;;;;;;16.17;10.50;;;;;;;9.89;69.87;101652.06;5032115;28;20136;-53
2022/03/14 01:49:58;;;;;;;15.45;10.27;;;;;;;9.86;70.18;101649.84;5029935;28;20053;-50
2022/03/14 01:52:23;;;;;;;15.57;10.35;;;;;;;9.84;70.47;101652.91;5031967;28;20079;-52
2022/03/14 01:54:48;;;;;;;16.38;10.40;;;;;;;9.78;70.73;101652.06;5032121;28;20030;-51
2022/03/14 01:57:14;;;;;;;14.80;9.90;;;;;;;9.77;70.94;101655.13;5032123;28;20018;-50
2022/03/14 01:59:40;;;;;;;16.17;10.30;;;;;;;9.74;71.32;101658.44;5032405;28;20030;-52
2022/03/14 02:02:05;;;;;;;16.10;10.75;;;;;;;9.75;71.51;101665.63;5031806;28;20449;-48
2022/03/14 02:04:30;;;;;;;16.63;10.70;;;;;;;9.77;71.31;101671.72;5034723;28;20482;-50
2022/03/14 02:06:57;;;;;;;16.38;10.27;;;;;;;9.77;71.64;101671.72;5034414;28;20037;-49
2022/03/14 02:09:23;;;;;;;16.52;10.10;;;;;;;9.76;71.40;101664.53;5035760;28;20033;-50
2022/03/14 02:12:11;;;;;;;15.77;10.13;;;;;;;9.82;71.28;101671.69;5036053;28;20052;-50
2022/03/14 02:14:39;;;;;;;14.93;9.95;;;;;;;9.84;70.85;101673.06;5034441;28;20045;-50
2022/03/14 02:17:07;;;;;;;15.82;10.18;;;;;;;9.80;71.59;101668.38;5036159;28;20029;-49
2022/03/14 02:19:32;;;;;;;16.70;10.20;;;;;;;9.80;71.60;101674.75;5034910;28;20163;-49
2022/03/14 02:21:58;;;;;;;16.63;10.43;;;;;;;9.77;71.80;101675.28;5035836;28;20557;-52
2022/03/14 02:24:28;;;;;;;16.40;10.43;;;;;;;9.76;71.47;101670.88;5036146;28;20029;-49
2022/03/14 02:26:54;;;;;;;15.18;10.52;;;;;;;9.82;71.55;101674.44;5036139;28;20488;-54
2022/03/14 02:29:19;;;;;;;17.08;10.77;;;;;;;9.81;71.79;101687.44;5035781;28;20033;-51
2022/03/14 02:31:45;;;;;;;15.40;10.23;;;;;;;9.83;71.85;101684.41;5035189;28;20026;-50
2022/03/14 02:34:10;;;;;;;15.82;10.48;;;;;;;9.82;71.68;101682.75;5035760;28;20025;-54
2022/03/14 02:36:37;;;;;;;16.55;10.60;;;;;;;9.89;71.26;101679.69;5034897;28;20151;-54
2022/03/14 02:39:03;;;;;;;17.08;10.68;;;;;;;9.89;71.54;101693.50;5035558;28;20030;-52
2022/03/14 02:41:28;;;;;;;17.67;11.23;;;;;;;9.88;71.58;101687.13;5035801;28;20029;-53
2022/03/14 02:43:53;;;;;;;16.35;10.90;;;;;;;9.86;72.16;101681.09;5035667;28;20113;-52
2022/03/14 02:46:20;;;;;;;16.58;10.60;;;;;;;9.85;72.00;101690.47;5035262;28;20385;-53
2022/03/14 02:48:46;;;;;;;17.85;11.02;;;;;;;9.80;72.74;101704.28;5035023;28;20037;-50
2022/03/14 02:51:11;;;;;;;15.85;10.80;;;;;;;9.77;72.83;101702.94;5035186;28;20512;-50
2022/03/14 02:53:36;;;;;;;17.55;10.90;;;;;;;9.79;73.01;101702.63;5034724;28;20104;-51
2022/03/14 02:56:02;;;;;;;17.33;11.35;;;;;;;9.74;72.76;101706.25;5035014;28;20075;-49
2022/03/14 02:58:32;;;;;;;17.30;10.38;;;;;;;9.73;72.44;101703.75;5033989;28;20025;-48
2022/03/14 03:00:58;;;;;;;17.20;11.05;;;;;;;9.79;71.95;101714.53;5034608;28;20116;-48
2022/03/14 03:03:23;;;;;;;17.02;10.90;;;;;;;9.79;71.92;101719.22;5035084;28;20083;-50
2022/03/14 03:05:48;;;;;;;16.80;10.75;;;;;;;9.73;72.40;101714.81;5034939;28;20404;-49
2022/03/14 03:08:14;;;;;;;17.27;11.40;;;;;;;9.70;72.35;101730.03;5034782;28;20030;-52
2022/03/14 03:10:40;;;;;;;16.70;10.70;;;;;;;9.70;72.53;101732.78;5033843;28;20436;-53
2022/03/14 03:13:05;;;;;;;17.23;11.48;;;;;;;9.72;72.35;101729.72;5034271;28;20050;-50
2022/03/14 03:15:31;;;;;;;18.13;11.40;;;;;;;9.63;72.97;101732.25;5033430;28;20044;-52
2022/03/14 03:17:56;;;;;;;16.52;11.10;;;;;;;9.65;72.55;101738.31;5033727;28;20510;-49
2022/03/14 03:20:22;;;;;;;18.10;11.45;;;;;;;9.63;72.63;101735.00;5033892;28;20032;-50
2022/03/14 03:22:48;;;;;;;17.05;11.00;;;;;;;9.62;72.86;101744.41;5034727;28;20052;-53
2022/03/14 03:25:13;;;;;;;16.40;10.88;;;;;;;9.63;73.17;101746.06;5033960;28;20577;-51
2022/03/14 03:27:39;;;;;;;16.77;11.23;;;;;;;9.61;73.10;101759.31;5034562;28;20393;-53
2022/03/14 03:30:05;;;;;;;17.58;11.35;;;;;;;9.57;73.14;101772.88;5033981;28;20036;-49
2022/03/14 03:32:31;;;;;;;17.35;11.40;;;;;;;9.61;73.10;101764.84;5034294;28;20057;-52
2022/03/14 03:34:56;;;;;;;17.95;11.40;;;;;;;9.57;73.47;101781.16;5034153;28;20555;-51
2022/03/14 03:37:21;;;;;;;16.17;10.80;;;;;;;9.50;73.89;101781.41;5033829;28;20451;-51
2022/03/14 03:39:47;;;;;;;17.60;11.40;;;;;;;9.44;73.84;101781.69;5033187;28;20044;-50
2022/03/14 03:42:12;;;;;;;17.42;10.75;;;;;;;9.46;74.25;101791.34;5034106;28;20029;-49
2022/03/14 03:44:37;;;;;;;17.27;11.15;;;;;;;9.44;74.03;101795.50;5034357;28;20017;-55
2022/03/14 03:47:04;;;;;;;17.83;11.25;;;;;;;9.39;74.26;101801.03;5034196;28;20083;-52
2022/03/14 03:49:30;;;;;;;16.42;11.25;;;;;;;9.41;73.66;101802.41;5034337;28;20033;-52
2022/03/14 03:51:55;;;;;;;16.67;11.25;;;;;;;9.42;74.16;101815.13;5033448;28;20022;-49
2022/03/14 03:54:21;;;;;;;17.63;12.13;;;;;;;9.38;74.44;101825.03;5033827;28;20398;-53
2022/03/14 03:56:47;;;;;;;16.80;11.30;;;;;;;9.31;74.72;101817.00;5033876;28;20030;-53
2022/03/14 03:59:12;;;;;;;17.92;11.68;;;;;;;9.31;75.00;101822.53;5033842;28;20101;-52
2022/03/14 04:01:37;;;;;;;16.15;11.23;;;;;;;9.29;74.96;101822.00;5033917;28;20037;-53
2022/03/14 04:04:03;;;;;;;18.10;11.60;;;;;;;9.26;75.11;101822.53;5033388;28;20375;-53
2022/03/14 04:06:30;;;;;;;19.50;10.80;;;;;;;9.26;75.49;101838.28;5033729;28;20068;-50
2022/03/14 04:08:56;;;;;;;17.45;10.50;;;;;;;9.24;75.70;101846.81;5032987;28;20372;-52
2022/03/14 04:11:22;;;;;;;17.38;10.80;;;;;;;9.24;75.73;101852.34;5033239;28;20049;-52
2022/03/14 04:13:49;;;;;;;18.23;10.77;;;;;;;9.21;75.89;101859.25;5032991;28;20029;-52
2022/03/14 04:16:17;;;;;;;18.42;11.73;;;;;;;9.27;75.61;101856.50;5032888;28;20026;-49
2022/03/14 04:18:43;;;;;;;19.35;11.57;;;;;;;9.26;75.71;101855.66;5033651;28;20029;-51
2022/03/14 04:21:09;;;;;;;18.15;12.15;;;;;;;9.09;76.85;101863.34;5033578;28;20045;-50
2022/03/14 04:23:34;;;;;;;20.17;12.50;;;;;;;9.11;76.99;101873.03;5032903;28;20035;-52
2022/03/14 04:26:00;;;;;;;18.67;12.50;;;;;;;9.10;77.02;101879.63;5032765;28;20443;-52
2022/03/14 04:28:25;;;;;;;19.27;12.77;;;;;;;9.07;77.36;101879.34;5033392;28;20465;-50
2022/03/14 04:30:50;;;;;;;18.50;11.77;;;;;;;9.04;77.37;101889.84;5033482;28;20025;-51
2022/03/14 04:33:15;;;;;;;18.38;11.32;;;;;;;8.99;77.76;101891.75;5032942;28;20036;-50
2022/03/14 04:35:41;;;;;;;18.38;11.60;;;;;;;8.91;78.06;101884.81;5033226;28;20032;-53
2022/03/14 04:38:10;;;;;;;18.40;11.75;;;;;;;8.88;78.09;101883.41;5032939;28;20037;-52
2022/03/14 04:40:36;;;;;;;17.73;11.57;;;;;;;8.86;77.95;101899.44;5032796;28;20421;-52
2022/03/14 04:43:08;;;;;;;18.48;11.70;;;;;;;8.84;78.35;101893.34;5032371;28;20021;-52
2022/03/14 04:45:35;;;;;;;18.60;12.50;;;;;;;8.78;78.87;101896.34;5032819;28;20021;-52
2022/03/14 04:48:01;;;;;;;18.33;12.02;;;;;;;8.72;79.26;101901.00;5033389;28;20283;-51
2022/03/14 04:50:27;;;;;;;19.60;12.40;;;;;;;8.70;79.50;101905.94;5031888;28;20420;-52
2022/03/14 04:52:52;;;;;;;20.48;12.82;;;;;;;8.66;79.72;101916.69;5033409;28;20021;-51
2022/03/14 04:55:18;;;;;;;20.30;13.20;;;;;;;8.66;79.80;101921.38;5032831;28;20079;-50
2022/03/14 04:57:43;;;;;;;19.33;12.95;;;;;;;8.56;80.42;101916.63;5031479;28;20033;-52
2022/03/14 05:00:09;;;;;;;20.33;12.65;;;;;;;8.53;80.52;101930.97;5033097;28;20025;-53
2022/03/14 05:02:35;;;;;;;20.33;12.85;;;;;;;8.53;80.57;101926.25;5032900;28;20029;-52
2022/03/14 05:05:00;;;;;;;19.63;13.30;;;;;;;8.51;80.56;101931.22;5032643;28;20026;-51
2022/03/14 05:07:26;;;;;;;20.17;13.05;;;;;;;8.55;80.64;101945.28;5032862;28;20026;-53
2022/03/14 05:09:51;;;;;;;19.98;13.73;;;;;;;8.53;80.76;101956.59;5032868;28;20037;-51
2022/03/14 05:12:16;;;;;;;20.05;13.25;;;;;;;8.52;80.50;101957.69;5030578;28;20048;-53
2022/03/14 05:14:42;;;;;;;19.48;13.07;;;;;;;8.51;80.92;101956.03;5032299;28;20041;-52
2022/03/14 05:17:08;;;;;;;22.38;13.63;;;;;;;8.53;80.87;101964.88;5032622;28;20033;-52
2022/03/14 05:19:34;;;;;;;21.17;13.77;;;;;;;8.59;80.98;101968.50;5031855;28;20061;-53
2022/03/14 05:21:59;;;;;;;20.48;13.50;;;;;;;8.56;80.57;101961.59;5032582;28;20064;-52
2022/03/14 05:24:25;;;;;;;20.20;13.68;;;;;;;8.58;81.01;101975.13;5032634;28;20029;-52
2022/03/14 05:26:51;;;;;;;20.05;13.30;;;;;;;8.62;80.45;101980.94;5033431;28;20053;-53
2022/03/14 05:29:16;;;;;;;20.73;13.20;;;;;;;8.60;80.63;101986.72;5032682;28;20038;-53
2022/03/14 05:31:42;;;;;;;20.98;13.60;;;;;;;8.60;80.53;101983.16;5032561;28;20032;-49
2022/03/14 05:34:07;;;;;;;21.20;13.77;;;;;;;8.62;80.60;101998.34;5032444;28;20036;-50
2022/03/14 05:36:33;;;;;;;20.98;13.23;;;;;;;8.60;80.57;102000.50;5032557;28;20056;-52
2022/03/14 05:38:58;;;;;;;20.77;13.45;;;;;;;8.65;80.31;102005.25;5036530;28;20053;-53
2022/03/14 05:41:23;;;;;;;20.20;13.88;;;;;;;8.54;80.34;102005.16;5036543;28;20029;-51
2022/03/14 05:43:49;;;;;;;21.35;14.68;;;;;;;8.55;80.65;102022.53;5035878;28;20025;-51
2022/03/14 05:46:14;;;;;;;20.35;13.57;;;;;;;8.56;80.69;102019.53;5036256;28;20018;-51
2022/03/14 05:48:39;;;;;;;21.00;14.32;;;;;;;8.52;80.99;102025.84;5036147;28;20025;-52
2022/03/14 05:51:07;;;;;;;21.40;15.07;;;;;;;8.49;80.78;102029.94;5036062;28;20029;-50
2022/03/14 05:53:32;;;;;;;21.45;15.00;;;;;;;8.45;81.13;102039.81;5036814;28;20036;-52
2022/03/14 05:55:58;;;;;;;21.58;14.70;;;;;;;8.48;81.16;102038.47;5036967;28;20022;-53
2022/03/14 05:58:23;;;;;;;22.48;15.00;;;;;;;8.50;80.90;102044.56;5036682;28;20035;-53
2022/03/14 06:00:51;;;;;;;21.98;14.85;;;;;;;8.55;80.84;102044.59;5036105;28;20026;-51
2022/03/14 06:03:17;;;;;;;21.10;14.73;;;;;;;8.50;80.99;102047.31;5036199;28;20087;-53
2022/03/14 06:05:42;;;;;;;22.88;15.10;;;;;;;8.45;81.19;102048.06;5035128;28;20022;-50
2022/03/14 06:08:08;;;;;;;22.70;15.27;;;;;;;8.46;81.12;102057.16;5035811;28;20026;-50
2022/03/14 06:10:33;;;;;;;23.45;15.35;;;;;;;8.36;81.58;102057.91;5035720;28;20029;-50
2022/03/14 06:12:59;;;;;;;22.98;15.50;;;;;;;8.36;81.36;102058.72;5036673;28;20069;-52
2022/03/14 06:15:24;;;;;;;22.77;16.15;;;;;;;8.39;81.48;102069.25;5035278;28;20044;-53
2022/03/14 06:17:50;;;;;;;24.13;15.38;;;;;;;8.40;81.52;102067.34;5034158;28;20034;-51
2022/03/14 06:20:16;;;;;;;22.98;16.08;;;;;;;8.42;81.51;102065.97;5035268;28;20370;-49
2022/03/14 06:22:46;;;;;;;23.38;16.27;;;;;;;8.47;81.49;102076.25;5035474;28;20033;-50
2022/03/14 06:25:13;;;;;;;24.15;15.93;;;;;;;8.50;81.22;102080.41;5036124;28;20029;-51
2022/03/14 06:27:39;;;;;;;23.02;15.30;;;;;;;8.53;81.01;102080.72;5036053;28;20049;-53
2022/03/14 06:30:06;;;;;;;24.08;15.90;;;;;;;8.55;81.04;102089.56;5035778;28;20033;-52
2022/03/14 06:32:40;;;;;;;24.17;16.13;;;;;;;8.60;81.00;102093.47;5035266;28;20095;-54
2022/03/14 06:35:08;;;;;;;25.35;16.83;;;;;;;8.54;81.11;102090.66;5035464;28;20029;-53
2022/03/14 06:37:33;;;;;;;25.58;16.50;;;;;;;8.56;81.20;102101.41;5034024;28;20078;-53
2022/03/14 06:39:59;;;;;;;24.75;16.75;;;;;;;8.52;81.09;102105.81;5035303;28;20037;-52
2022/03/14 06:42:24;;;;;;;24.55;16.67;;;;;;;8.50;81.74;102110.75;5034530;28;20036;-52
2022/03/14 06:44:50;;;;;;;25.50;16.60;;;;;;;8.51;81.40;102113.25;5035098;28;20053;-53
2022/03/14 06:47:17;;;;;;;24.70;16.55;;;;;;;8.54;81.28;102114.66;5034890;28;20094;-53
2022/03/14 06:49:44;;;;;;;24.88;16.40;;;;;;;8.54;81.49;102120.19;5034351;28;20508;-52
2022/03/14 06:52:11;;;;;;;25.15;16.83;;;;;;;8.60;81.47;102123.81;5035512;28;20021;-52
2022/03/14 06:54:36;;;;;;;26.10;17.95;;;;;;;8.64;81.18;102124.94;5035713;28;20374;-53
2022/03/14 06:57:02;;;;;;;24.35;16.75;;;;;;;8.63;80.94;102123.28;5035030;28;20037;-51
2022/03/14 06:59:28;;;;;;;27.25;17.20;;;;;;;8.69;81.07;102133.28;5035659;28;20033;-54
2022/03/14 07:01:53;;;;;;;25.63;16.92;;;;;;;8.68;80.75;102132.44;5035935;28;20021;-51
2022/03/14 07:04:18;;;;;;;28.08;17.95;;;;;;;8.71;80.65;102129.16;5035445;28;20025;-53
2022/03/14 07:06:44;;;;;;;26.45;18.02;;;;;;;8.74;81.05;102133.31;5035433;28;20024;-52
2022/03/14 07:09:09;;;;;;;29.08;17.88;;;;;;;8.78;80.67;102137.25;5037045;28;20040;-53
2022/03/14 07:11:35;;;;;;;25.98;17.33;;;;;;;8.80;80.21;102140.53;5034746;28;20061;-53
2022/03/14 07:14:00;;;;;;;25.67;17.27;;;;;;;8.85;80.65;102148.88;5034032;28;20037;-52
2022/03/14 07:16:26;;;;;;;27.58;18.08;;;;;;;8.88;79.86;102153.03;5034720;28;20117;-51
2022/03/14 07:18:51;;;;;;;25.67;17.55;;;;;;;8.92;80.11;102153.34;5035045;28;20363;-52
2022/03/14 07:21:17;;;;;;;26.33;17.67;;;;;;;8.91;80.15;102152.53;5035158;28;20026;-52
2022/03/14 07:23:43;;;;;;;27.20;17.50;;;;;;;8.92;79.79;102154.19;5034431;28;20029;-53
2022/03/14 07:26:08;;;;;;;27.33;18.08;;;;;;;8.91;79.89;102160.81;5033934;28;20029;-50
2022/03/14 07:28:34;;;;;;;26.27;18.02;;;;;;;8.93;79.67;102155.81;5033774;28;20029;-54
2022/03/14 07:30:59;;;;;;;25.73;17.60;;;;;;;8.93;79.42;102157.78;5032960;28;20489;-51
2022/03/14 07:33:25;;;;;;;27.20;18.17;;;;;;;9.00;79.19;102153.72;5032874;28;20163;-53
2022/03/14 07:35:51;;;;;;;26.77;18.13;;;;;;;8.96;79.42;102155.31;5032638;28;20022;-53
2022/03/14 07:38:16;;;;;;;26.30;18.08;;;;;;;9.05;79.11;102166.72;5032853;28;20528;-54
2022/03/14 07:40:42;;;;;;;25.25;16.88;;;;;;;9.09;78.64;102162.31;5032577;28;20045;-53
2022/03/14 07:43:08;;;;;;;26.55;18.75;;;;;;;9.12;78.60;102160.94;5033050;28;20037;-53
2022/03/14 07:45:33;;;;;;;27.33;17.38;;;;;;;9.19;78.39;102159.63;5032678;28;20113;-53
2022/03/14 07:47:59;;;;;;;26.60;17.23;;;;;;;9.24;77.92;102161.59;5032569;28;20040;-54
2022/03/14 07:50:25;;;;;;;27.77;18.42;;;;;;;9.30;77.82;102170.75;5032402;28;20116;-53
2022/03/14 07:52:51;;;;;;;26.63;17.58;;;;;;;9.36;77.36;102177.97;5032698;28;20041;-55
2022/03/14 07:55:17;;;;;;;25.98;17.35;;;;;;;9.40;77.41;102181.06;5032289;28;20185;-54
2022/03/14 07:57:43;;;;;;;26.55;17.88;;;;;;;9.43;77.01;102175.00;5032329;28;20040;-53
2022/03/14 08:00:11;;;;;;;27.08;18.10;;;;;;;9.40;76.67;102176.38;5032144;28;20623;-54
2022/03/14 08:02:37;;;;;;;28.27;17.95;;;;;;;9.43;76.68;102186.03;5032204;28;20050;-56
2022/03/14 08:05:03;;;;;;;28.73;17.60;;;;;;;9.46;76.68;102189.09;5032071;28;20135;-55
2022/03/14 08:07:29;;;;;;;27.23;17.80;;;;;;;9.44;76.52;102198.75;5032341;28;20040;-53
2022/03/14 08:09:55;;;;;;;28.40;18.15;;;;;;;9.47;76.57;102198.25;5032172;28;20029;-55
2022/03/14 08:12:22;;;;;;;29.98;19.40;;;;;;;9.47;76.33;102199.06;5031925;28;20085;-54
2022/03/14 08:14:48;;;;;;;30.77;19.25;;;;;;;9.47;76.10;102207.34;5030068;28;20091;-52
2022/03/14 08:17:14;;;;;;;29.25;18.77;;;;;;;9.47;76.23;102214.81;5031797;28;20428;-53
2022/03/14 08:19:39;;;;;;;29.20;19.27;;;;;;;9.48;76.06;102214.53;5031514;28;20029;-52
2022/03/14 08:22:05;;;;;;;29.20;20.10;;;;;;;9.47;75.79;102215.63;5031516;28;20447;-54
2022/03/14 08:24:30;;;;;;;30.38;19.85;;;;;;;9.44;76.10;102227.22;5031609;28;20104;-51
2022/03/14 08:26:56;;;;;;;29.73;19.52;;;;;;;9.48;75.78;102225.59;5031624;28;20030;-50
2022/03/14 08:29:21;;;;;;;29.60;19.60;;;;;;;9.45;75.96;102234.38;5031491;28;20029;-51
2022/03/14 08:31:47;;;;;;;29.15;19.27;;;;;;;9.47;76.27;102239.66;5031532;28;20034;-51
2022/03/14 08:34:13;;;;;;;33.33;19.48;;;;;;;9.45;76.26;102237.16;5031410;28;20037;-52
2022/03/14 08:36:40;;;;;;;32.42;19.05;;;;;;;9.47;76.05;102242.44;5031282;28;20033;-52
2022/03/14 08:39:09;;;;;;;30.45;19.73;;;;;;;9.50;75.78;102247.41;5031257;28;20104;-51
2022/03/14 08:41:36;;;;;;;30.38;19.50;;;;;;;9.54;75.55;102253.25;5031357;28;20512;-53
2022/03/14 08:44:05;;;;;;;30.00;19.30;;;;;;;9.59;75.26;102250.53;5031366;28;20405;-51
2022/03/14 08:46:31;;;;;;;29.55;18.77;;;;;;;9.57;74.96;102255.47;5031126;28;20450;-53
2022/03/14 08:48:57;;;;;;;28.58;18.80;;;;;;;9.56;75.27;102267.63;5031242;28;20032;-53
2022/03/14 08:51:22;;;;;;;31.42;18.85;;;;;;;9.60;75.15;102271.53;5031126;28;20084;-53
2022/03/14 08:53:47;;;;;;;30.27;18.83;;;;;;;9.62;75.36;102272.94;5031106;28;20485;-54
2022/03/14 08:56:13;;;;;;;29.05;19.50;;;;;;;9.68;75.06;102276.56;5031240;28;20571;-52
2022/03/14 08:58:38;;;;;;;30.25;19.20;;;;;;;9.74;75.22;102282.97;5030071;28;20032;-53
2022/03/14 09:01:04;;;;;;;27.92;19.08;;;;;;;9.85;74.40;102273.66;5030101;28;20033;-51
2022/03/14 09:03:30;;;;;;;29.48;18.15;;;;;;;9.95;74.19;102289.47;5031260;28;20029;-52
2022/03/14 09:05:58;;;;;;;27.08;17.75;;;;;;;10.06;73.54;102290.38;5033365;28;20040;-52
2022/03/14 09:08:24;;;;;;;28.40;19.42;;;;;;;10.10;73.16;102295.09;5032541;28;20049;-53
2022/03/14 09:10:51;;;;;;;28.02;18.35;;;;;;;10.14;73.12;102295.41;5032312;28;20032;-50
2022/03/14 09:13:16;;;;;;;28.08;18.75;;;;;;;10.17;73.00;102305.09;5031596;28;20083;-53
2022/03/14 09:15:42;;;;;;;29.73;18.13;;;;;;;10.24;73.10;102301.00;5032933;28;20034;-51
2022/03/14 09:18:08;;;;;;;27.67;18.08;;;;;;;10.33;72.46;102306.00;5033063;28;20029;-53
2022/03/14 09:20:37;;;;;;;30.05;18.92;;;;;;;10.32;72.24;102307.94;5032902;28;20057;-51
2022/03/14 09:23:03;;;;;;;29.15;18.95;;;;;;;10.34;72.06;102311.28;5033300;28;20033;-53
2022/03/14 09:25:28;;;;;;;27.58;18.42;;;;;;;10.33;72.25;102315.13;5033087;28;20389;-53
2022/03/14 09:27:54;;;;;;;29.10;18.15;;;;;;;10.34;72.16;102327.88;5033086;28;20029;-54
2022/03/14 09:30:20;;;;;;;29.42;18.83;;;;;;;10.39;71.87;102325.13;5033091;28;20029;-53
2022/03/14 09:32:46;;;;;;;28.77;18.45;;;;;;;10.40;72.01;102326.00;5031711;28;20018;-51
2022/03/14 09:35:13;;;;;;;28.33;18.38;;;;;;;10.39;71.81;102336.22;5032995;28;20147;-53
2022/03/14 09:37:39;;;;;;;25.35;16.48;;;;;;;10.50;71.63;102341.78;5033197;28;20033;-53
2022/03/14 09:40:07;;;;;;;26.65;17.35;;;;;;;10.51;71.03;102337.94;5032932;28;20045;-53
2022/03/14 09:42:39;;;;;;;25.15;16.48;;;;;;;10.75;70.26;102346.63;5033139;28;20068;-52
2022/03/14 09:45:06;;;;;;;27.55;17.25;;;;;;;10.86;69.83;102358.59;5032846;28;20032;-52
2022/03/14 09:47:40;;;;;;;28.02;17.65;;;;;;;10.94;69.78;102360.84;5031608;28;20390;-53
2022/03/14 09:50:14;;;;;;;29.67;17.90;;;;;;;11.01;69.78;102366.94;5033101;28;20018;-53
2022/03/14 09:52:44;;;;;;;;;;;;;;;11.18;68.89;102365.88;5033551;28;20060;-53
2022/03/14 09:55:11;;;;;;;25.85;17.98;;;;;;;11.05;68.57;102376.34;5032818;28;19913;-53
2022/03/14 09:57:38;;;;;;;27.27;17.73;;;;;;;11.11;68.31;102379.97;5033010;28;20025;-51
2022/03/14 10:00:11;;;;;;;30.58;18.00;;;;;;;11.14;68.33;102384.97;5032915;28;20096;-53
2022/03/14 10:02:37;;;;;;;28.38;18.98;;;;;;;11.21;68.09;102373.66;5033189;28;20072;-50
2022/03/14 10:05:06;;;;;;;27.65;18.70;;;;;;;11.30;68.12;102390.56;5032736;28;20049;-53
2022/03/14 10:07:34;;;;;;;27.63;18.65;;;;;;;11.38;67.51;102399.19;5032807;28;20064;-53
2022/03/14 10:09:59;;;;;;;27.33;18.60;;;;;;;11.49;67.75;102390.88;5032633;28;20029;-52
2022/03/14 10:12:24;;;;;;;27.83;18.77;;;;;;;11.60;66.78;102387.03;5032776;28;20452;-53
2022/03/14 10:14:50;;;;;;;27.92;18.10;;;;;;;11.72;66.46;102386.75;5032760;28;20109;-54
2022/03/14 10:17:15;;;;;;;26.55;16.65;;;;;;;11.74;65.44;102384.53;5032603;28;20025;-54
2022/03/14 10:19:40;;;;;;;27.35;17.38;;;;;;;11.80;65.84;102388.16;5032525;28;20048;-54
2022/03/14 10:22:14;;;;;;;27.02;18.00;;;;;;;11.85;65.90;102383.41;5032677;28;20145;-53
2022/03/14 10:24:40;;;;;;;27.25;17.60;;;;;;;11.90;65.56;102385.38;5034318;28;20021;-54
2022/03/14 10:27:05;;;;;;;24.10;16.23;;;;;;;12.05;64.17;102386.50;5036398;28;20105;-53
2022/03/14 10:29:31;;;;;;;25.80;15.48;;;;;;;12.16;63.59;102397.31;5036172;28;20029;-54
2022/03/14 10:31:56;;;;;;;26.92;16.33;;;;;;;12.15;62.76;102398.41;5036150;28;20025;-53
2022/03/14 10:34:23;;;;;;;23.00;15.50;;;;;;;12.16;62.75;102404.81;5036142;28;20519;-54
2022/03/14 10:36:57;;;;;;;22.92;14.52;;;;;;;12.14;62.62;102399.53;5036076;28;20025;-54
2022/03/14 10:39:28;;;;;;;24.05;14.98;;;;;;;12.16;62.84;102415.91;5035929;28;20030;-54
2022/03/14 10:42:13;;;;;;;25.90;14.45;;;;;;;12.17;63.27;102418.41;5036380;28;20025;-53
2022/03/14 10:44:41;;;;;;;26.40;15.10;;;;;;;12.11;62.90;102415.91;5036121;28;20516;-52
2022/03/14 10:47:09;;;;;;;23.52;14.32;;;;;;;12.17;62.80;102423.13;5036053;28;20025;-51
2022/03/14 10:49:36;;;;;;;22.98;13.32;;;;;;;12.30;62.29;102424.50;5035760;28;20033;-50
2022/03/14 10:52:08;;;;;;;23.92;13.70;;;;;;;12.29;61.72;102417.28;5035734;28;20022;-52
2022/03/14 10:54:38;;;;;;;24.10;13.95;;;;;;;12.33;61.63;102424.75;5035913;28;20108;-54
2022/03/14 10:57:04;;;;;;;21.90;13.13;;;;;;;12.45;61.70;102423.66;5035801;28;20033;-54
2022/03/14 10:59:40;;;;;;;24.05;13.75;;;;;;;12.57;61.28;102424.16;5035774;28;20053;-53
2022/03/14 11:02:11;;;;;;;25.17;14.43;;;;;;;12.53;60.92;102419.44;5035426;28;20034;-50
2022/03/14 11:04:57;;;;;;;23.73;13.25;;;;;;;12.48;61.40;102415.59;5035666;28;20026;-53
2022/03/14 11:07:31;;;;;;;22.65;13.82;;;;;;;12.36;60.32;102415.03;5035476;28;20044;-53
2022/03/14 11:09:59;;;;;;;21.38;12.85;;;;;;;12.46;60.73;102426.13;5035641;28;20425;-53